createdAt,value
2016-02-21T00:00:15.802Z,1005.95
2016-02-21T00:01:15.791Z,1006.01
2016-02-21T00:02:15.777Z,1006.03
2016-02-21T00:03:15.750Z,1005.95
2016-02-21T00:04:15.736Z,1006.01
2016-02-21T00:05:15.724Z,1006.04
2016-02-21T00:06:15.696Z,1006.02
2016-02-21T00:07:15.682Z,1006.11
2016-02-21T00:08:15.669Z,1006.14
2016-02-21T00:09:15.640Z,1006.21
2016-02-21T00:10:15.627Z,1006.24
2016-02-21T00:11:15.615Z,1006.23
2016-02-21T00:12:15.602Z,1006.28
2016-02-21T00:13:15.573Z,1006.22
2016-02-21T00:14:15.560Z,1006.25
2016-02-21T00:15:15.547Z,1006.18
2016-02-21T00:16:15.518Z,1006.04
2016-02-21T00:17:15.506Z,1006.03
2016-02-21T00:18:15.493Z,1006.13
2016-02-21T00:19:15.481Z,1006.13
2016-02-21T00:20:15.467Z,1006.12
2016-02-21T00:21:15.439Z,1006.05
2016-02-21T00:22:15.425Z,1006.09
2016-02-21T00:23:15.397Z,1006.13
2016-02-21T00:24:15.384Z,1006.13
2016-02-21T00:25:15.371Z,1006.16
2016-02-21T00:26:15.359Z,1006.26
2016-02-21T00:27:15.330Z,1006.28
2016-02-21T00:28:15.317Z,1006.31
2016-02-21T00:29:15.288Z,1006.32
2016-02-21T00:30:15.275Z,1006.28
2016-02-21T00:31:15.263Z,1006.3
2016-02-21T00:32:15.250Z,1006.27
2016-02-21T00:33:15.221Z,1006.29
2016-02-21T00:34:15.208Z,1006.24
2016-02-21T00:35:15.195Z,1006.3
2016-02-21T00:36:15.182Z,1006.28
2016-02-21T00:37:15.153Z,1006.27
2016-02-21T00:38:15.140Z,1006.34
2016-02-21T00:39:15.113Z,1006.39
2016-02-21T00:40:15.099Z,1006.48
2016-02-21T00:41:15.085Z,1006.44
2016-02-21T00:42:15.073Z,1006.39
2016-02-21T00:43:15.044Z,1006.45
2016-02-21T00:44:15.032Z,1006.46
2016-02-21T00:45:15.019Z,1006.45
2016-02-21T00:46:14.990Z,1006.54
2016-02-21T00:47:14.977Z,1006.56
2016-02-21T00:48:14.964Z,1006.5
2016-02-21T00:49:14.936Z,1006.61
2016-02-21T00:50:14.922Z,1006.64
2016-02-21T00:51:14.909Z,1006.63
2016-02-21T00:52:14.898Z,1006.66
2016-02-21T00:53:14.868Z,1006.65
2016-02-21T00:54:14.856Z,1006.63
2016-02-21T00:55:14.842Z,1006.52
2016-02-21T00:56:14.829Z,1006.62
2016-02-21T00:57:14.801Z,1006.59
2016-02-21T00:58:14.789Z,1006.7
2016-02-21T00:59:14.759Z,1006.66
2016-02-21T01:00:14.747Z,1006.7
2016-02-21T01:01:14.734Z,1006.59
2016-02-21T01:02:14.721Z,1006.65
2016-02-21T01:03:14.723Z,1006.6
2016-02-21T01:04:14.710Z,1006.67
2016-02-21T01:05:14.667Z,1006.63
2016-02-21T01:06:14.653Z,1006.63
2016-02-21T01:07:14.625Z,1006.68
2016-02-21T01:08:14.612Z,1006.7
2016-02-21T01:09:14.583Z,1006.67
2016-02-21T01:10:14.586Z,1006.73
2016-02-21T01:11:14.557Z,1006.84
2016-02-21T01:12:14.528Z,1006.79
2016-02-21T01:13:14.516Z,1006.76
2016-02-21T01:14:14.503Z,1006.93
2016-02-21T01:15:14.490Z,1006.9
2016-02-21T01:16:14.476Z,1006.95
2016-02-21T01:17:14.448Z,1006.89
2016-02-21T01:18:14.436Z,1006.88
2016-02-21T01:19:14.423Z,1006.86
2016-02-21T01:20:14.395Z,1006.95
2016-02-21T01:21:14.381Z,1007
2016-02-21T01:22:14.368Z,1006.86
2016-02-21T01:23:14.339Z,1006.86
2016-02-21T01:24:14.327Z,1006.76
2016-02-21T01:25:14.314Z,1006.9
2016-02-21T01:26:14.286Z,1006.87
2016-02-21T01:27:14.273Z,1006.84
2016-02-21T01:28:14.259Z,1006.85
2016-02-21T01:29:14.230Z,1006.87
2016-02-21T01:30:14.217Z,1006.78
2016-02-21T01:31:14.205Z,1006.85
2016-02-21T01:32:14.192Z,1006.85
2016-02-21T01:33:14.163Z,1006.76
2016-02-21T01:34:14.150Z,1006.71
2016-02-21T01:35:14.138Z,1006.72
2016-02-21T01:36:14.124Z,1006.76
2016-02-21T01:37:14.096Z,1006.71
2016-02-21T01:38:14.082Z,1006.72
2016-02-21T01:39:14.055Z,1006.83
2016-02-21T01:40:14.104Z,1006.77
2016-02-21T01:41:14.029Z,1006.91
2016-02-21T01:42:13.999Z,1007.04
2016-02-21T01:43:13.987Z,1007.09
2016-02-21T01:44:13.974Z,1007.06
2016-02-21T01:45:13.946Z,1007.16
2016-02-21T01:46:13.933Z,1007.2
2016-02-21T01:47:13.920Z,1007.14
2016-02-21T01:48:13.907Z,1007.14
2016-02-21T01:49:13.878Z,1007.24
2016-02-21T01:50:13.865Z,1007.29
2016-02-21T01:51:13.852Z,1007.17
2016-02-21T01:52:13.824Z,1007.3
2016-02-21T01:53:13.812Z,1007.25
2016-02-21T01:54:13.798Z,1007.36
2016-02-21T01:55:13.770Z,1007.43
2016-02-21T01:56:13.756Z,1007.37
2016-02-21T01:57:13.744Z,1007.52
2016-02-21T01:58:13.730Z,1007.43
2016-02-21T01:59:13.703Z,1007.43
2016-02-21T02:00:13.689Z,1007.48
2016-02-21T02:01:13.676Z,1007.49
2016-02-21T02:02:13.647Z,1007.52
2016-02-21T02:03:13.635Z,1007.6
2016-02-21T02:04:13.621Z,1007.58
2016-02-21T02:05:13.609Z,1007.44
2016-02-21T02:06:13.581Z,1007.46
2016-02-21T02:07:13.567Z,1007.44
2016-02-21T02:08:13.539Z,1007.36
2016-02-21T02:09:13.526Z,1007.39
2016-02-21T02:10:13.513Z,1007.49
2016-02-21T02:11:13.484Z,1007.46
2016-02-21T02:12:13.471Z,1007.51
2016-02-21T02:13:13.458Z,1007.45
2016-02-21T02:14:13.446Z,1007.52
2016-02-21T02:15:13.418Z,1007.45
2016-02-21T02:16:13.404Z,1007.41
2016-02-21T02:17:13.390Z,1007.37
2016-02-21T02:18:13.363Z,1007.39
2016-02-21T02:19:13.349Z,1007.36
2016-02-21T02:20:13.337Z,1007.46
2016-02-21T02:21:13.309Z,1007.38
2016-02-21T02:22:13.295Z,1007.36
2016-02-21T02:23:13.282Z,1007.25
2016-02-21T02:24:13.253Z,1007.21
2016-02-21T02:25:13.240Z,1007.2
2016-02-21T02:26:13.228Z,1007.26
2016-02-21T02:27:13.215Z,1007.24
2016-02-21T02:28:13.187Z,1007.27
2016-02-21T02:29:13.173Z,1007.19
2016-02-21T02:30:13.161Z,1007.17
2016-02-21T02:31:13.132Z,1007.11
2016-02-21T02:32:13.119Z,1007.16
2016-02-21T02:33:13.106Z,1007.17
2016-02-21T02:34:13.078Z,1007.14
2016-02-21T02:35:13.064Z,1007.15
2016-02-21T02:36:13.052Z,1007.13
2016-02-21T02:37:13.023Z,1007.18
2016-02-21T02:38:13.010Z,1007.32
2016-02-21T02:39:12.997Z,1007.45
2016-02-21T02:40:12.969Z,1007.33
2016-02-21T02:41:12.956Z,1007.35
2016-02-21T02:42:12.943Z,1007.35
2016-02-21T02:43:12.914Z,1007.31
2016-02-21T02:44:12.901Z,1007.37
2016-02-21T02:45:12.888Z,1007.41
2016-02-21T02:46:12.859Z,1007.4
2016-02-21T02:47:12.847Z,1007.42
2016-02-21T02:48:12.834Z,1007.4
2016-02-21T02:49:12.821Z,1007.36
2016-02-21T02:50:12.793Z,1007.4
2016-02-21T02:51:12.772Z,1007.35
2016-02-21T02:52:12.751Z,1007.42
2016-02-21T02:53:12.712Z,1007.42
2016-02-21T02:54:12.690Z,1007.47
2016-02-21T02:55:12.668Z,1007.45
2016-02-21T02:56:12.633Z,1007.5
2016-02-21T02:57:12.616Z,1007.5
2016-02-21T02:58:12.601Z,1007.4
2016-02-21T02:59:12.584Z,1007.41
2016-02-21T03:00:12.553Z,1007.42
2016-02-21T03:01:12.537Z,1007.33
2016-02-21T03:02:12.507Z,1007.28
2016-02-21T03:03:12.492Z,1007.26
2016-02-21T03:04:12.478Z,1007.42
2016-02-21T03:05:12.463Z,1007.38
2016-02-21T03:06:12.434Z,1007.38
2016-02-21T03:07:12.436Z,1007.39
2016-02-21T03:08:12.407Z,1007.38
2016-02-21T03:09:12.379Z,1007.4
2016-02-21T03:10:12.366Z,1007.43
2016-02-21T03:11:12.352Z,1007.39
2016-02-21T03:12:12.324Z,1007.54
2016-02-21T03:13:12.311Z,1007.56
2016-02-21T03:14:12.298Z,1007.59
2016-02-21T03:15:12.285Z,1007.56
2016-02-21T03:16:12.257Z,1007.63
2016-02-21T03:17:12.243Z,1007.65
2016-02-21T03:18:12.230Z,1007.71
2016-02-21T03:19:12.201Z,1007.68
2016-02-21T03:20:12.188Z,1007.61
2016-02-21T03:21:12.176Z,1007.7
2016-02-21T03:22:12.148Z,1007.64
2016-02-21T03:23:12.135Z,1007.58
2016-02-21T03:24:12.121Z,1007.59
2016-02-21T03:25:12.109Z,1007.61
2016-02-21T03:26:12.080Z,1007.66
2016-02-21T03:27:12.067Z,1007.68
2016-02-21T03:28:12.039Z,1007.74
2016-02-21T03:29:12.026Z,1007.7
2016-02-21T03:30:12.013Z,1007.7
2016-02-21T03:31:11.984Z,1007.75
2016-02-21T03:32:11.971Z,1007.73
2016-02-21T03:33:11.958Z,1007.75
2016-02-21T03:34:11.930Z,1007.67
2016-02-21T03:35:11.916Z,1007.78
2016-02-21T03:36:11.903Z,1007.75
2016-02-21T03:37:11.875Z,1007.77
2016-02-21T03:38:11.862Z,1007.71
2016-02-21T03:39:11.850Z,1007.71
2016-02-21T03:40:11.836Z,1007.72
2016-02-21T03:41:11.823Z,1007.71
2016-02-21T03:42:11.811Z,1007.72
2016-02-21T03:43:11.783Z,1007.8
2016-02-21T03:44:11.753Z,1007.81
2016-02-21T03:45:11.741Z,1007.88
2016-02-21T03:46:11.728Z,1007.91
2016-02-21T03:47:11.699Z,1007.86
2016-02-21T03:48:11.686Z,1007.92
2016-02-21T03:49:11.673Z,1008.01
2016-02-21T03:50:11.645Z,1008.06
2016-02-21T03:51:11.632Z,1008.13
2016-02-21T03:52:11.619Z,1008.15
2016-02-21T03:53:11.606Z,1008.11
2016-02-21T03:54:11.577Z,1008.06
2016-02-21T03:55:11.565Z,1007.99
2016-02-21T03:56:11.551Z,1008.02
2016-02-21T03:57:11.522Z,1008.11
2016-02-21T03:58:11.510Z,1008.09
2016-02-21T03:59:11.498Z,1008.15
2016-02-21T04:00:11.468Z,1008.09
2016-02-21T04:01:11.455Z,1008.2
2016-02-21T04:02:11.442Z,1008.2
2016-02-21T04:03:11.415Z,1008.15
2016-02-21T04:04:11.401Z,1008.21
2016-02-21T04:05:11.389Z,1008.23
2016-02-21T04:06:11.359Z,1008.2
2016-02-21T04:07:11.347Z,1008.18
2016-02-21T04:08:11.333Z,1008.19
2016-02-21T04:09:11.320Z,1008.15
2016-02-21T04:10:11.291Z,1008.23
2016-02-21T04:11:11.279Z,1008.21
2016-02-21T04:12:11.247Z,1008.24
2016-02-21T04:13:11.236Z,1008.17
2016-02-21T04:14:11.222Z,1008.18
2016-02-21T04:15:11.209Z,1008.21
2016-02-21T04:16:11.196Z,1008.27
2016-02-21T04:17:11.168Z,1008.28
2016-02-21T04:18:11.155Z,1008.2
2016-02-21T04:19:11.127Z,1008.19
2016-02-21T04:20:11.114Z,1008.13
2016-02-21T04:21:11.100Z,1008.13
2016-02-21T04:22:11.088Z,1008.15
2016-02-21T04:23:11.059Z,1008.15
2016-02-21T04:24:11.046Z,1008.14
2016-02-21T04:25:11.033Z,1008.15
2016-02-21T04:26:11.004Z,1008.24
2016-02-21T04:27:10.991Z,1008.16
2016-02-21T04:28:10.979Z,1008.16
2016-02-21T04:29:10.951Z,1008.15
2016-02-21T04:30:10.937Z,1008.19
2016-02-21T04:31:10.923Z,1008.26
2016-02-21T04:32:10.895Z,1008.2
2016-02-21T04:33:10.883Z,1008.26
2016-02-21T04:34:10.870Z,1008.27
2016-02-21T04:35:10.842Z,1008.27
2016-02-21T04:36:10.828Z,1008.28
2016-02-21T04:37:10.815Z,1008.26
2016-02-21T04:38:10.786Z,1008.24
2016-02-21T04:39:10.774Z,1008.26
2016-02-21T04:40:10.760Z,1008.28
2016-02-21T04:41:10.733Z,1008.28
2016-02-21T04:42:10.719Z,1008.27
2016-02-21T04:43:10.706Z,1008.24
2016-02-21T04:44:10.693Z,1008.27
2016-02-21T04:45:10.664Z,1008.22
2016-02-21T04:46:10.652Z,1008.28
2016-02-21T04:47:10.639Z,1008.24
2016-02-21T04:48:10.611Z,1008.27
2016-02-21T04:49:10.597Z,1008.28
2016-02-21T04:50:10.585Z,1008.26
2016-02-21T04:51:10.571Z,1008.34
2016-02-21T04:52:10.543Z,1008.34
2016-02-21T04:53:10.529Z,1008.35
2016-02-21T04:54:10.501Z,1008.34
2016-02-21T04:55:10.489Z,1008.41
2016-02-21T04:56:10.476Z,1008.34
2016-02-21T04:57:10.463Z,1008.35
2016-02-21T04:58:10.434Z,1008.4
2016-02-21T04:59:10.421Z,1008.45
2016-02-21T05:00:10.408Z,1008.4
2016-02-21T05:01:10.379Z,1008.43
2016-02-21T05:02:10.367Z,1008.42
2016-02-21T05:03:10.354Z,1008.44
2016-02-21T05:04:10.340Z,1008.49
2016-02-21T05:05:10.312Z,1008.51
2016-02-21T05:06:10.300Z,1008.5
2016-02-21T05:07:10.286Z,1008.56
2016-02-21T05:08:10.258Z,1008.53
2016-02-21T05:09:10.245Z,1008.6
2016-02-21T05:10:10.232Z,1008.51
2016-02-21T05:11:10.203Z,1008.57
2016-02-21T05:12:10.191Z,1008.51
2016-02-21T05:13:10.161Z,1008.47
2016-02-21T05:14:10.149Z,1008.48
2016-02-21T05:15:10.137Z,1008.55
2016-02-21T05:16:10.108Z,1008.52
2016-02-21T05:17:10.095Z,1008.57
2016-02-21T05:18:10.082Z,1008.61
2016-02-21T05:19:10.069Z,1008.59
2016-02-21T05:20:10.040Z,1008.62
2016-02-21T05:21:10.027Z,1008.6
2016-02-21T05:22:10.013Z,1008.55
2016-02-21T05:23:09.986Z,1008.61
2016-02-21T05:24:09.989Z,1008.54
2016-02-21T05:25:09.960Z,1008.56
2016-02-21T05:26:09.931Z,1008.49
2016-02-21T05:27:09.918Z,1008.5
2016-02-21T05:28:09.905Z,1008.4
2016-02-21T05:29:09.877Z,1008.45
2016-02-21T05:30:09.864Z,1008.46
2016-02-21T05:31:09.852Z,1008.44
2016-02-21T05:32:09.823Z,1008.44
2016-02-21T05:33:09.810Z,1008.47
2016-02-21T05:34:09.796Z,1008.4
2016-02-21T05:35:09.783Z,1008.43
2016-02-21T05:36:09.756Z,1008.36
2016-02-21T05:37:09.743Z,1008.38
2016-02-21T05:38:09.714Z,1008.38
2016-02-21T05:39:09.701Z,1008.37
2016-02-21T05:40:09.703Z,1008.28
2016-02-21T05:41:09.675Z,1008.4
2016-02-21T05:42:09.646Z,1008.38
2016-02-21T05:43:09.633Z,1008.4
2016-02-21T05:44:09.621Z,1008.44
2016-02-21T05:45:09.592Z,1008.44
2016-02-21T05:46:09.579Z,1008.43
2016-02-21T05:47:09.566Z,1008.39
2016-02-21T05:48:09.537Z,1008.4
2016-02-21T05:49:09.524Z,1008.46
2016-02-21T05:50:09.511Z,1008.57
2016-02-21T05:51:09.483Z,1008.51
2016-02-21T05:52:09.470Z,1008.53
2016-02-21T05:53:09.458Z,1008.56
2016-02-21T05:54:09.444Z,1008.51
2016-02-21T05:55:09.415Z,1008.57
2016-02-21T05:56:09.402Z,1008.55
2016-02-21T05:57:09.390Z,1008.57
2016-02-21T05:58:09.361Z,1008.56
2016-02-21T05:59:09.349Z,1008.53
2016-02-21T06:00:09.335Z,1008.64
2016-02-21T06:01:09.307Z,1008.66
2016-02-21T06:02:09.293Z,1008.66
2016-02-21T06:03:09.282Z,1008.62
2016-02-21T06:04:09.251Z,1008.58
2016-02-21T06:05:09.240Z,1008.61
2016-02-21T06:06:09.227Z,1008.58
2016-02-21T06:07:09.214Z,1008.67
2016-02-21T06:08:09.185Z,1008.64
2016-02-21T06:09:09.172Z,1008.67
2016-02-21T06:10:09.143Z,1008.71
2016-02-21T06:11:09.130Z,1008.77
2016-02-21T06:12:09.117Z,1008.71
2016-02-21T06:13:09.089Z,1008.8
2016-02-21T06:14:09.076Z,1008.73
2016-02-21T06:15:09.064Z,1008.74
2016-02-21T06:16:09.034Z,1008.73
2016-02-21T06:17:09.022Z,1008.7
2016-02-21T06:18:09.009Z,1008.7
2016-02-21T06:19:08.997Z,1008.68
2016-02-21T06:20:08.967Z,1008.62
2016-02-21T06:21:08.955Z,1008.63
2016-02-21T06:22:08.942Z,1008.56
2016-02-21T06:23:08.913Z,1008.52
2016-02-21T06:24:08.900Z,1008.59
2016-02-21T06:25:08.887Z,1008.63
2016-02-21T06:26:08.874Z,1008.61
2016-02-21T06:27:08.861Z,1008.66
2016-02-21T06:28:08.833Z,1008.61
2016-02-21T06:29:08.819Z,1008.63
2016-02-21T06:30:08.791Z,1008.68
2016-02-21T06:31:08.778Z,1008.6
2016-02-21T06:32:08.765Z,1008.66
2016-02-21T06:33:08.736Z,1008.66
2016-02-21T06:34:08.724Z,1008.65
2016-02-21T06:35:08.711Z,1008.67
2016-02-21T06:36:08.682Z,1008.71
2016-02-21T06:37:08.670Z,1008.71
2016-02-21T06:38:08.656Z,1008.7
2016-02-21T06:39:08.628Z,1008.76
2016-02-21T06:40:08.614Z,1008.73
2016-02-21T06:41:08.601Z,1008.72
2016-02-21T06:42:08.589Z,1008.74
2016-02-21T06:43:08.561Z,1008.7
2016-02-21T06:44:08.548Z,1008.72
2016-02-21T06:45:08.534Z,1008.76
2016-02-21T06:46:08.505Z,1008.64
2016-02-21T06:47:08.492Z,1008.72
2016-02-21T06:48:08.481Z,1008.71
2016-02-21T06:49:08.452Z,1008.65
2016-02-21T06:50:08.439Z,1008.63
2016-02-21T06:51:08.425Z,1008.71
2016-02-21T06:52:08.413Z,1008.74
2016-02-21T06:53:08.383Z,1008.78
2016-02-21T06:54:08.371Z,1008.7
2016-02-21T06:55:08.344Z,1008.76
2016-02-21T06:56:08.330Z,1008.76
2016-02-21T06:57:08.317Z,1008.71
2016-02-21T06:58:08.288Z,1008.77
2016-02-21T06:59:08.275Z,1008.7
2016-02-21T07:00:08.262Z,1008.74
2016-02-21T07:01:08.234Z,1008.75
2016-02-21T07:02:08.221Z,1008.77
2016-02-21T07:03:08.208Z,1008.79
2016-02-21T07:04:08.195Z,1008.76
2016-02-21T07:05:08.166Z,1008.81
2016-02-21T07:06:08.154Z,1008.78
2016-02-21T07:07:08.125Z,1008.75
2016-02-21T07:08:08.112Z,1008.8
2016-02-21T07:09:08.099Z,1008.77
2016-02-21T07:10:08.086Z,1008.68
2016-02-21T07:11:08.057Z,1008.74
2016-02-21T07:12:08.045Z,1008.73
2016-02-21T07:13:08.031Z,1008.82
2016-02-21T07:14:08.003Z,1008.87
2016-02-21T07:15:07.990Z,1008.81
2016-02-21T07:16:07.977Z,1008.78
2016-02-21T07:17:07.948Z,1008.78
2016-02-21T07:18:07.936Z,1008.76
2016-02-21T07:19:07.923Z,1008.84
2016-02-21T07:20:07.910Z,1008.86
2016-02-21T07:21:07.881Z,1008.9
2016-02-21T07:22:07.869Z,1008.92
2016-02-21T07:23:07.839Z,1009.01
2016-02-21T07:24:07.827Z,1009.01
2016-02-21T07:25:07.814Z,1008.97
2016-02-21T07:26:07.785Z,1009.03
2016-02-21T07:27:07.773Z,1009.05
2016-02-21T07:28:07.760Z,1009.07
2016-02-21T07:29:07.746Z,1009.06
2016-02-21T07:30:07.718Z,1009.13
2016-02-21T07:31:07.704Z,1009.1
2016-02-21T07:32:07.693Z,1009.1
2016-02-21T07:33:07.664Z,1009.02
2016-02-21T07:34:07.651Z,1009.03
2016-02-21T07:35:07.637Z,1009.01
2016-02-21T07:36:07.624Z,1008.96
2016-02-21T07:37:07.596Z,1009.02
2016-02-21T07:38:07.584Z,1009.06
2016-02-21T07:39:07.555Z,1009.11
2016-02-21T07:40:07.543Z,1009.08
2016-02-21T07:41:07.529Z,1009.13
2016-02-21T07:42:07.501Z,1008.99
2016-02-21T07:43:07.487Z,1009.07
2016-02-21T07:44:07.475Z,1009.07
2016-02-21T07:45:07.445Z,1009.09
2016-02-21T07:46:07.434Z,1009.13
2016-02-21T07:47:07.420Z,1009.06
2016-02-21T07:48:07.392Z,1009.1
2016-02-21T07:49:07.378Z,1009.15
2016-02-21T07:50:07.366Z,1009.16
2016-02-21T07:51:07.352Z,1009.18
2016-02-21T07:52:07.324Z,1009.15
2016-02-21T07:53:07.312Z,1009.21
2016-02-21T07:54:07.283Z,1009.22
2016-02-21T07:55:07.270Z,1009.27
2016-02-21T07:56:07.257Z,1009.21
2016-02-21T07:57:07.228Z,1009.11
2016-02-21T07:58:07.215Z,1009.06
2016-02-21T07:59:07.203Z,1009.01
2016-02-21T08:00:07.189Z,1009.05
2016-02-21T08:01:07.161Z,1009.06
2016-02-21T08:02:07.164Z,1009.03
2016-02-21T08:03:07.135Z,1009.03
2016-02-21T08:04:07.107Z,1009.02
2016-02-21T08:05:07.094Z,1009.05
2016-02-21T08:06:07.080Z,1009.02
2016-02-21T08:07:07.052Z,1009.01
2016-02-21T08:08:07.040Z,1008.98
2016-02-21T08:09:07.027Z,1008.98
2016-02-21T08:10:07.013Z,1009.07
2016-02-21T08:11:06.985Z,1009.04
2016-02-21T08:12:06.972Z,1009.07
2016-02-21T08:13:06.943Z,1009.16
2016-02-21T08:14:06.931Z,1009.12
2016-02-21T08:15:06.918Z,1009.15
2016-02-21T08:16:06.889Z,1009.17
2016-02-21T08:17:06.876Z,1009.14
2016-02-21T08:18:06.863Z,1009.11
2016-02-21T08:19:06.834Z,1009.11
2016-02-21T08:20:06.822Z,1009.08
2016-02-21T08:21:06.808Z,1009.26
2016-02-21T08:22:06.781Z,1009.21
2016-02-21T08:23:06.767Z,1009.22
2016-02-21T08:24:06.754Z,1009.17
2016-02-21T08:25:06.725Z,1009.22
2016-02-21T08:26:06.713Z,1009.08
2016-02-21T08:27:06.699Z,1009.14
2016-02-21T08:28:06.686Z,1009.18
2016-02-21T08:29:06.658Z,1009.14
2016-02-21T08:30:06.645Z,1009.17
2016-02-21T08:31:06.633Z,1009.02
2016-02-21T08:32:06.604Z,1009.06
2016-02-21T08:33:06.591Z,1009.07
2016-02-21T08:34:06.577Z,1009.08
2016-02-21T08:35:06.550Z,1009.08
2016-02-21T08:36:06.535Z,1009.15
2016-02-21T08:37:06.508Z,1009.17
2016-02-21T08:38:06.495Z,1009.11
2016-02-21T08:39:06.482Z,1009.15
2016-02-21T08:40:06.468Z,1009.14
2016-02-21T08:41:06.440Z,1009.2
2016-02-21T08:42:06.427Z,1009.16
2016-02-21T08:43:06.414Z,1009.14
2016-02-21T08:44:06.387Z,1009.09
2016-02-21T08:45:06.373Z,1009.1
2016-02-21T08:46:06.360Z,1009.09
2016-02-21T08:47:06.347Z,1009.14
2016-02-21T08:48:06.318Z,1009.1
2016-02-21T08:49:06.306Z,1009.03
2016-02-21T08:50:06.277Z,1009.11
2016-02-21T08:51:06.265Z,1009.06
2016-02-21T08:52:06.251Z,1008.98
2016-02-21T08:53:06.223Z,1008.97
2016-02-21T08:54:06.209Z,1008.98
2016-02-21T08:55:06.197Z,1009.04
2016-02-21T08:56:06.168Z,1008.93
2016-02-21T08:57:06.155Z,1008.99
2016-02-21T08:58:06.158Z,1008.97
2016-02-21T08:59:06.114Z,1008.99
2016-02-21T09:00:06.101Z,1008.97
2016-02-21T09:01:06.088Z,1009.08
2016-02-21T09:02:06.060Z,1009.05
2016-02-21T09:03:06.047Z,1009.03
2016-02-21T09:04:06.033Z,1009.04
2016-02-21T09:05:06.021Z,1008.95
2016-02-21T09:06:05.992Z,1009.04
2016-02-21T09:07:05.979Z,1009.05
2016-02-21T09:08:05.966Z,1009.04
2016-02-21T09:09:05.954Z,1009.04
2016-02-21T09:10:05.925Z,1009.07
2016-02-21T09:11:05.912Z,1009.08
2016-02-21T09:12:05.883Z,1009.06
2016-02-21T09:13:05.870Z,1009.08
2016-02-21T09:14:05.857Z,1009.13
2016-02-21T09:15:05.829Z,1009.13
2016-02-21T09:16:05.816Z,1009.15
2016-02-21T09:17:05.803Z,1009.15
2016-02-21T09:18:05.774Z,1009.13
2016-02-21T09:19:05.761Z,1009.18
2016-02-21T09:20:05.748Z,1009.08
2016-02-21T09:21:05.720Z,1009.17
2016-02-21T09:22:05.706Z,1009.17
2016-02-21T09:23:05.695Z,1009.09
2016-02-21T09:24:05.665Z,1009.09
2016-02-21T09:25:05.652Z,1009.09
2016-02-21T09:26:05.640Z,1009.09
2016-02-21T09:27:05.627Z,1009.04
2016-02-21T09:28:05.598Z,1009.09
2016-02-21T09:29:05.585Z,1009
2016-02-21T09:30:05.556Z,1008.96
2016-02-21T09:31:05.544Z,1008.98
2016-02-21T09:32:05.530Z,1008.99
2016-02-21T09:33:05.518Z,1008.96
2016-02-21T09:34:05.489Z,1009.02
2016-02-21T09:35:05.477Z,1009.01
2016-02-21T09:36:05.463Z,1009.06
2016-02-21T09:37:05.435Z,1009.05
2016-02-21T09:38:05.422Z,1009.08
2016-02-21T09:39:05.409Z,1009.06
2016-02-21T09:40:05.380Z,1009.1
2016-02-21T09:41:05.367Z,1009.05
2016-02-21T09:42:05.355Z,1009.02
2016-02-21T09:43:05.326Z,1009.1
2016-02-21T09:44:05.313Z,1009.08
2016-02-21T09:45:05.300Z,1009.1
2016-02-21T09:46:05.271Z,1009.12
2016-02-21T09:47:05.259Z,1009.15
2016-02-21T09:48:05.245Z,1009.13
2016-02-21T09:49:05.218Z,1009.2
2016-02-21T09:50:05.204Z,1009.15
2016-02-21T09:51:05.191Z,1009.19
2016-02-21T09:52:05.162Z,1009.21
2016-02-21T09:53:05.150Z,1009.2
2016-02-21T09:54:05.136Z,1009.19
2016-02-21T09:55:05.109Z,1009.21
2016-02-21T09:56:05.095Z,1009.21
2016-02-21T09:57:05.083Z,1009.19
2016-02-21T09:58:05.053Z,1009.25
2016-02-21T09:59:05.041Z,1009.17
2016-02-21T10:00:05.028Z,1009.15
2016-02-21T10:01:05.000Z,1009.18
2016-02-21T10:02:04.986Z,1009.06
2016-02-21T10:03:04.974Z,1009.16
2016-02-21T10:04:04.960Z,1009.08
2016-02-21T10:05:04.933Z,1009.13
2016-02-21T10:06:04.919Z,1009.11
2016-02-21T10:07:04.891Z,1009.02
2016-02-21T10:08:04.878Z,1009.1
2016-02-21T10:09:04.865Z,1009.1
2016-02-21T10:10:04.836Z,1009.07
2016-02-21T10:11:04.824Z,1009.07
2016-02-21T10:12:04.811Z,1009.04
2016-02-21T10:13:04.783Z,1009.04
2016-02-21T10:14:04.768Z,1009.02
2016-02-21T10:15:04.757Z,1008.96
2016-02-21T10:16:04.743Z,1008.96
2016-02-21T10:17:04.715Z,1009.02
2016-02-21T10:18:04.702Z,1009.05
2016-02-21T10:19:04.688Z,1009.07
2016-02-21T10:20:04.660Z,1009.01
2016-02-21T10:21:04.648Z,1009.01
2016-02-21T10:22:04.635Z,1008.99
2016-02-21T10:23:04.607Z,1008.99
2016-02-21T10:24:04.593Z,1008.94
2016-02-21T10:25:04.580Z,1009.02
2016-02-21T10:26:04.551Z,1008.9
2016-02-21T10:27:04.539Z,1008.93
2016-02-21T10:28:04.526Z,1008.9
2016-02-21T10:29:04.498Z,1008.93
2016-02-21T10:30:04.484Z,1008.97
2016-02-21T10:31:04.471Z,1008.9
2016-02-21T10:32:04.459Z,1008.93
2016-02-21T10:33:04.430Z,1008.98
2016-02-21T10:34:04.417Z,1008.98
2016-02-21T10:35:04.389Z,1008.97
2016-02-21T10:36:04.376Z,1008.96
2016-02-21T10:37:04.362Z,1008.92
2016-02-21T10:38:04.334Z,1008.89
2016-02-21T10:39:04.321Z,1008.87
2016-02-21T10:40:04.308Z,1008.9
2016-02-21T10:41:04.280Z,1008.96
2016-02-21T10:42:04.283Z,1008.9
2016-02-21T10:43:04.253Z,1009.03
2016-02-21T10:44:04.241Z,1009
2016-02-21T10:45:04.212Z,1009.09
2016-02-21T10:46:04.199Z,1009.15
2016-02-21T10:47:04.186Z,1009.05
2016-02-21T10:48:04.158Z,1009.11
2016-02-21T10:49:04.144Z,1009.05
2016-02-21T10:50:04.147Z,1009
2016-02-21T10:51:04.103Z,1009.06
2016-02-21T10:52:04.090Z,1009.05
2016-02-21T10:53:04.077Z,1009.06
2016-02-21T10:54:04.049Z,1009.01
2016-02-21T10:55:04.036Z,1008.97
2016-02-21T10:56:04.023Z,1008.96
2016-02-21T10:57:03.995Z,1008.89
2016-02-21T10:58:03.981Z,1008.95
2016-02-21T10:59:03.968Z,1008.97
2016-02-21T11:00:03.939Z,1008.98
2016-02-21T11:01:03.927Z,1008.98
2016-02-21T11:02:03.914Z,1008.97
2016-02-21T11:03:03.886Z,1009.02
2016-02-21T11:04:03.873Z,1009.06
2016-02-21T11:05:03.859Z,1008.96
2016-02-21T11:06:03.847Z,1008.92
2016-02-21T11:07:03.818Z,1008.98
2016-02-21T11:08:03.805Z,1008.96
2016-02-21T11:09:03.792Z,1008.94
2016-02-21T11:10:03.764Z,1008.88
2016-02-21T11:11:03.750Z,1008.9
2016-02-21T11:12:03.722Z,1008.82
2016-02-21T11:13:03.708Z,1008.91
2016-02-21T11:14:03.696Z,1008.8
2016-02-21T11:15:03.683Z,1008.74
2016-02-21T11:16:03.655Z,1008.84
2016-02-21T11:17:03.642Z,1008.78
2016-02-21T11:18:03.614Z,1008.78
2016-02-21T11:19:03.600Z,1008.75
2016-02-21T11:20:03.588Z,1008.81
2016-02-21T11:21:03.559Z,1008.81
2016-02-21T11:22:03.546Z,1008.7
2016-02-21T11:23:03.533Z,1008.69
2016-02-21T11:24:03.520Z,1008.66
2016-02-21T11:25:03.491Z,1008.79
2016-02-21T11:26:03.479Z,1008.64
2016-02-21T11:27:03.466Z,1008.7
2016-02-21T11:28:03.453Z,1008.67
2016-02-21T11:29:03.424Z,1008.65
2016-02-21T11:30:03.412Z,1008.63
2016-02-21T11:31:03.382Z,1008.62
2016-02-21T11:32:03.370Z,1008.65
2016-02-21T11:33:03.357Z,1008.66
2016-02-21T11:34:03.345Z,1008.55
2016-02-21T11:35:03.315Z,1008.56
2016-02-21T11:36:03.302Z,1008.48
2016-02-21T11:37:03.289Z,1008.53
2016-02-21T11:38:03.276Z,1008.45
2016-02-21T11:39:03.248Z,1008.44
2016-02-21T11:40:03.235Z,1008.52
2016-02-21T11:41:03.206Z,1008.55
2016-02-21T11:42:03.194Z,1008.5
2016-02-21T11:43:03.165Z,1008.53
2016-02-21T11:44:03.152Z,1008.51
2016-02-21T11:45:03.139Z,1008.47
2016-02-21T11:46:03.126Z,1008.37
2016-02-21T11:47:03.097Z,1008.43
2016-02-21T11:48:03.085Z,1008.43
2016-02-21T11:49:03.072Z,1008.32
2016-02-21T11:50:03.043Z,1008.54
2016-02-21T11:51:03.030Z,1008.43
2016-02-21T11:52:03.018Z,1008.52
2016-02-21T11:53:02.988Z,1008.45
2016-02-21T11:54:02.976Z,1008.49
2016-02-21T11:55:02.963Z,1008.37
2016-02-21T11:56:02.934Z,1008.33
2016-02-21T11:57:02.918Z,1008.45
2016-02-21T11:58:02.891Z,1008.36
2016-02-21T11:59:02.864Z,1008.28
2016-02-21T12:00:02.820Z,1008.27
2016-02-21T12:01:02.792Z,1008.31
2016-02-21T12:02:02.751Z,1008.33
2016-02-21T12:03:02.732Z,1008.29
2016-02-21T12:04:02.715Z,1008.32
2016-02-21T12:05:02.680Z,1008.3
2016-02-21T12:06:02.663Z,1008.19
2016-02-21T12:07:02.645Z,1008.16
2016-02-21T12:08:02.629Z,1008.2